sensor_id;sensor_type;location;lat;lon;timestamp;temperature;humidity
21216;DHT22;10765;50.954;5.322;2022-11-03T00:00:59;11.90;99.90
21216;DHT22;10765;50.954;5.322;2022-11-03T00:03:26;12.00;99.90
21216;DHT22;10765;50.954;5.322;2022-11-03T00:05:53;11.90;99.90
21216;DHT22;10765;50.954;5.322;2022-11-03T00:08:36;11.90;99.90
21216;DHT22;10765;50.954;5.322;2022-11-03T00:11:06;11.90;99.90
21216;DHT22;10765;50.954;5.322;2022-11-03T00:13:34;11.90;99.90
21216;DHT22;10765;50.954;5.322;2022-11-03T00:16:01;11.90;99.90
21216;DHT22;10765;50.954;5.322;2022-11-03T00:18:29;12.00;91.80
21216;DHT22;10765;50.954;5.322;2022-11-03T00:21:00;12.00;50.90
21216;DHT22;10765;50.954;5.322;2022-11-03T00:23:28;12.00;66.00
21216;DHT22;10765;50.954;5.322;2022-11-03T00:26:03;12.00;80.80
21216;DHT22;10765;50.954;5.322;2022-11-03T00:28:31;11.90;99.90
21216;DHT22;10765;50.954;5.322;2022-11-03T00:30:58;11.80;99.20
21216;DHT22;10765;50.954;5.322;2022-11-03T00:33:25;11.90;99.90
21216;DHT22;10765;50.954;5.322;2022-11-03T00:35:56;11.90;59.60
21216;DHT22;10765;50.954;5.322;2022-11-03T00:38:23;12.00;10.80
21216;DHT22;10765;50.954;5.322;2022-11-03T00:40:52;12.10;3.90
21216;DHT22;10765;50.954;5.322;2022-11-03T00:43:21;12.10;5.00
21216;DHT22;10765;50.954;5.322;2022-11-03T00:45:48;12.10;2.10
21216;DHT22;10765;50.954;5.322;2022-11-03T00:48:16;12.10;1.00
21216;DHT22;10765;50.954;5.322;2022-11-03T00:51:00;12.10;1.00
21216;DHT22;10765;50.954;5.322;2022-11-03T00:53:29;12.10;1.00
21216;DHT22;10765;50.954;5.322;2022-11-03T00:55:56;12.10;1.00
21216;DHT22;10765;50.954;5.322;2022-11-03T00:58:24;12.10;1.00
21216;DHT22;10765;50.954;5.322;2022-11-03T01:00:58;12.10;1.00
21216;DHT22;10765;50.954;5.322;2022-11-03T01:03:25;12.10;4.10
21216;DHT22;10765;50.954;5.322;2022-11-03T01:05:51;12.10;1.20
21216;DHT22;10765;50.954;5.322;2022-11-03T01:08:36;12.10;1.00
21216;DHT22;10765;50.954;5.322;2022-11-03T01:11:04;12.10;1.00
21216;DHT22;10765;50.954;5.322;2022-11-03T01:13:50;12.10;1.00
21216;DHT22;10765;50.954;5.322;2022-11-03T01:16:17;12.10;1.00
21216;DHT22;10765;50.954;5.322;2022-11-03T01:18:44;12.10;1.00
21216;DHT22;10765;50.954;5.322;2022-11-03T01:21:11;12.10;3.20
21216;DHT22;10765;50.954;5.322;2022-11-03T01:23:38;12.00;11.00
21216;DHT22;10765;50.954;5.322;2022-11-03T01:26:06;12.00;7.70
21216;DHT22;10765;50.954;5.322;2022-11-03T01:28:33;12.10;1.00
21216;DHT22;10765;50.954;5.322;2022-11-03T01:31:04;12.10;1.00
21216;DHT22;10765;50.954;5.322;2022-11-03T01:33:31;12.10;4.10
21216;DHT22;10765;50.954;5.322;2022-11-03T01:35:58;12.10;1.00
21216;DHT22;10765;50.954;5.322;2022-11-03T01:38:25;12.10;1.00
21216;DHT22;10765;50.954;5.322;2022-11-03T01:40:52;12.10;1.00
21216;DHT22;10765;50.954;5.322;2022-11-03T01:43:21;12.10;1.00
21216;DHT22;10765;50.954;5.322;2022-11-03T01:45:50;12.10;1.00
21216;DHT22;10765;50.954;5.322;2022-11-03T01:48:21;12.10;6.30
21216;DHT22;10765;50.954;5.322;2022-11-03T01:50:51;12.10;15.20
21216;DHT22;10765;50.954;5.322;2022-11-03T01:53:18;12.10;17.50
21216;DHT22;10765;50.954;5.322;2022-11-03T01:55:47;12.10;8.70
21216;DHT22;10765;50.954;5.322;2022-11-03T01:58:17;12.10;1.00
21216;DHT22;10765;50.954;5.322;2022-11-03T02:00:48;12.10;1.00
21216;DHT22;10765;50.954;5.322;2022-11-03T02:03:16;12.10;14.50
21216;DHT22;10765;50.954;5.322;2022-11-03T02:05:45;12.10;20.20
21216;DHT22;10765;50.954;5.322;2022-11-03T02:08:18;12.10;11.40
21216;DHT22;10765;50.954;5.322;2022-11-03T02:10:47;12.10;37.70
21216;DHT22;10765;50.954;5.322;2022-11-03T02:13:19;12.10;28.90
21216;DHT22;10765;50.954;5.322;2022-11-03T02:15:47;12.00;68.40
21216;DHT22;10765;50.954;5.322;2022-11-03T02:18:15;12.00;96.10
21216;DHT22;10765;50.954;5.322;2022-11-03T02:20:46;12.00;99.90
21216;DHT22;10765;50.954;5.322;2022-11-03T02:23:26;12.00;97.20
21216;DHT22;10765;50.954;5.322;2022-11-03T02:25:56;12.00;88.70
21216;DHT22;10765;50.954;5.322;2022-11-03T02:28:25;12.00;88.90
21216;DHT22;10765;50.954;5.322;2022-11-03T02:31:00;12.00;99.90
21216;DHT22;10765;50.954;5.322;2022-11-03T02:33:46;12.00;86.40
21216;DHT22;10765;50.954;5.322;2022-11-03T02:36:19;12.10;78.90
21216;DHT22;10765;50.954;5.322;2022-11-03T02:38:50;12.10;84.20
21216;DHT22;10765;50.954;5.322;2022-11-03T02:41:21;12.10;82.60
21216;DHT22;10765;50.954;5.322;2022-11-03T02:43:49;12.00;99.90
21216;DHT22;10765;50.954;5.322;2022-11-03T02:46:17;12.00;99.90
21216;DHT22;10765;50.954;5.322;2022-11-03T02:48:46;12.00;99.90
21216;DHT22;10765;50.954;5.322;2022-11-03T02:51:13;12.10;99.90
21216;DHT22;10765;50.954;5.322;2022-11-03T02:53:45;12.10;99.90
21216;DHT22;10765;50.954;5.322;2022-11-03T02:56:16;12.10;99.90
21216;DHT22;10765;50.954;5.322;2022-11-03T02:58:52;12.20;99.90
21216;DHT22;10765;50.954;5.322;2022-11-03T03:01:25;12.30;99.90
21216;DHT22;10765;50.954;5.322;2022-11-03T03:03:55;12.30;99.90
21216;DHT22;10765;50.954;5.322;2022-11-03T03:06:27;12.20;99.90
21216;DHT22;10765;50.954;5.322;2022-11-03T03:09:00;12.30;99.90
21216;DHT22;10765;50.954;5.322;2022-11-03T03:11:28;12.30;99.90
21216;DHT22;10765;50.954;5.322;2022-11-03T03:14:09;12.30;99.90
21216;DHT22;10765;50.954;5.322;2022-11-03T03:16:46;12.40;99.90
21216;DHT22;10765;50.954;5.322;2022-11-03T03:19:20;12.40;99.90
21216;DHT22;10765;50.954;5.322;2022-11-03T03:21:51;12.40;99.90
21216;DHT22;10765;50.954;5.322;2022-11-03T03:24:29;12.40;99.90
21216;DHT22;10765;50.954;5.322;2022-11-03T03:27:00;12.50;99.90
21216;DHT22;10765;50.954;5.322;2022-11-03T03:29:33;12.50;99.90
21216;DHT22;10765;50.954;5.322;2022-11-03T03:32:06;12.50;99.90
21216;DHT22;10765;50.954;5.322;2022-11-03T03:34:35;12.50;99.90
21216;DHT22;10765;50.954;5.322;2022-11-03T03:37:05;12.50;99.90
21216;DHT22;10765;50.954;5.322;2022-11-03T03:39:36;12.60;99.90
21216;DHT22;10765;50.954;5.322;2022-11-03T03:42:06;12.60;99.90
21216;DHT22;10765;50.954;5.322;2022-11-03T03:44:36;12.50;99.90
21216;DHT22;10765;50.954;5.322;2022-11-03T03:47:08;12.50;99.90
21216;DHT22;10765;50.954;5.322;2022-11-03T03:49:37;12.60;99.90
21216;DHT22;10765;50.954;5.322;2022-11-03T03:52:04;12.60;99.90
21216;DHT22;10765;50.954;5.322;2022-11-03T03:54:31;12.60;99.90
21216;DHT22;10765;50.954;5.322;2022-11-03T03:57:00;12.50;99.90
21216;DHT22;10765;50.954;5.322;2022-11-03T03:59:28;12.50;99.90
21216;DHT22;10765;50.954;5.322;2022-11-03T04:01:56;12.50;99.90
21216;DHT22;10765;50.954;5.322;2022-11-03T04:04:24;12.50;99.90
21216;DHT22;10765;50.954;5.322;2022-11-03T04:06:50;12.60;99.90
21216;DHT22;10765;50.954;5.322;2022-11-03T04:09:38;12.60;99.90
21216;DHT22;10765;50.954;5.322;2022-11-03T04:12:07;12.60;99.90
21216;DHT22;10765;50.954;5.322;2022-11-03T04:14:51;12.50;99.90
21216;DHT22;10765;50.954;5.322;2022-11-03T04:17:38;12.50;99.90
21216;DHT22;10765;50.954;5.322;2022-11-03T04:20:25;12.50;99.90
21216;DHT22;10765;50.954;5.322;2022-11-03T04:23:10;12.50;99.90
21216;DHT22;10765;50.954;5.322;2022-11-03T04:25:37;12.50;1.00
21216;DHT22;10765;50.954;5.322;2022-11-03T04:28:07;12.50;1.00
21216;DHT22;10765;50.954;5.322;2022-11-03T04:30:35;12.60;1.00
21216;DHT22;10765;50.954;5.322;2022-11-03T04:33:04;12.60;99.90
21216;DHT22;10765;50.954;5.322;2022-11-03T04:35:37;12.60;99.90
21216;DHT22;10765;50.954;5.322;2022-11-03T04:38:17;12.60;99.90
21216;DHT22;10765;50.954;5.322;2022-11-03T04:40:46;12.60;99.90
21216;DHT22;10765;50.954;5.322;2022-11-03T04:43:15;12.60;1.00
21216;DHT22;10765;50.954;5.322;2022-11-03T04:45:44;12.50;1.00
21216;DHT22;10765;50.954;5.322;2022-11-03T04:48:18;12.60;1.00
21216;DHT22;10765;50.954;5.322;2022-11-03T04:50:46;12.60;1.00
21216;DHT22;10765;50.954;5.322;2022-11-03T04:53:18;12.60;99.90
21216;DHT22;10765;50.954;5.322;2022-11-03T04:55:47;12.60;1.00
21216;DHT22;10765;50.954;5.322;2022-11-03T04:58:18;12.50;1.00
21216;DHT22;10765;50.954;5.322;2022-11-03T05:00:46;12.60;99.90
21216;DHT22;10765;50.954;5.322;2022-11-03T05:03:19;12.70;99.90
21216;DHT22;10765;50.954;5.322;2022-11-03T05:05:47;12.60;99.90
21216;DHT22;10765;50.954;5.322;2022-11-03T05:08:15;12.60;99.90
21216;DHT22;10765;50.954;5.322;2022-11-03T05:10:43;12.60;99.90
21216;DHT22;10765;50.954;5.322;2022-11-03T05:13:17;12.60;99.90
21216;DHT22;10765;50.954;5.322;2022-11-03T05:15:44;12.50;1.00
21216;DHT22;10765;50.954;5.322;2022-11-03T05:18:16;12.50;1.00
21216;DHT22;10765;50.954;5.322;2022-11-03T05:20:48;12.40;1.00
21216;DHT22;10765;50.954;5.322;2022-11-03T05:23:17;12.50;1.00
21216;DHT22;10765;50.954;5.322;2022-11-03T05:25:47;12.50;1.00
21216;DHT22;10765;50.954;5.322;2022-11-03T05:28:20;12.40;1.00
21216;DHT22;10765;50.954;5.322;2022-11-03T05:30:48;12.40;1.00
21216;DHT22;10765;50.954;5.322;2022-11-03T05:33:18;12.40;1.00
21216;DHT22;10765;50.954;5.322;2022-11-03T05:35:50;12.40;1.00
21216;DHT22;10765;50.954;5.322;2022-11-03T05:38:19;12.40;1.00
21216;DHT22;10765;50.954;5.322;2022-11-03T05:40:49;12.40;1.00
21216;DHT22;10765;50.954;5.322;2022-11-03T05:43:17;12.40;1.00
21216;DHT22;10765;50.954;5.322;2022-11-03T05:45:45;12.40;1.00
21216;DHT22;10765;50.954;5.322;2022-11-03T05:48:17;12.40;1.00
21216;DHT22;10765;50.954;5.322;2022-11-03T05:50:49;12.40;99.90
21216;DHT22;10765;50.954;5.322;2022-11-03T05:53:28;12.40;99.90
21216;DHT22;10765;50.954;5.322;2022-11-03T05:55:59;12.50;99.90
21216;DHT22;10765;50.954;5.322;2022-11-03T05:58:28;12.40;99.90
21216;DHT22;10765;50.954;5.322;2022-11-03T06:00:56;12.40;99.90
21216;DHT22;10765;50.954;5.322;2022-11-03T06:03:27;12.40;1.00
21216;DHT22;10765;50.954;5.322;2022-11-03T06:05:56;12.40;99.90
21216;DHT22;10765;50.954;5.322;2022-11-03T06:08:26;12.40;99.90
21216;DHT22;10765;50.954;5.322;2022-11-03T06:10:57;12.40;99.90
21216;DHT22;10765;50.954;5.322;2022-11-03T06:13:29;12.40;99.90
21216;DHT22;10765;50.954;5.322;2022-11-03T06:15:58;12.30;99.90
21216;DHT22;10765;50.954;5.322;2022-11-03T06:18:31;12.30;99.90
21216;DHT22;10765;50.954;5.322;2022-11-03T06:21:03;12.30;99.90
21216;DHT22;10765;50.954;5.322;2022-11-03T06:23:32;12.30;99.90
21216;DHT22;10765;50.954;5.322;2022-11-03T06:26:01;12.30;99.90
21216;DHT22;10765;50.954;5.322;2022-11-03T06:28:30;12.30;99.90
21216;DHT22;10765;50.954;5.322;2022-11-03T06:31:01;12.40;99.90
21216;DHT22;10765;50.954;5.322;2022-11-03T06:33:33;12.40;99.90
21216;DHT22;10765;50.954;5.322;2022-11-03T06:36:09;12.40;99.90
21216;DHT22;10765;50.954;5.322;2022-11-03T06:38:37;12.50;99.90
21216;DHT22;10765;50.954;5.322;2022-11-03T06:41:06;12.40;99.90
21216;DHT22;10765;50.954;5.322;2022-11-03T06:43:39;12.50;99.90
21216;DHT22;10765;50.954;5.322;2022-11-03T06:46:13;12.50;99.90
21216;DHT22;10765;50.954;5.322;2022-11-03T06:48:40;12.50;99.90
21216;DHT22;10765;50.954;5.322;2022-11-03T06:51:14;12.50;99.90
21216;DHT22;10765;50.954;5.322;2022-11-03T06:53:41;12.50;99.90
21216;DHT22;10765;50.954;5.322;2022-11-03T06:56:12;12.60;99.90
21216;DHT22;10765;50.954;5.322;2022-11-03T06:58:40;12.60;99.90
21216;DHT22;10765;50.954;5.322;2022-11-03T07:01:13;12.60;99.90
21216;DHT22;10765;50.954;5.322;2022-11-03T07:03:40;12.60;99.90
21216;DHT22;10765;50.954;5.322;2022-11-03T07:06:14;12.60;99.90
21216;DHT22;10765;50.954;5.322;2022-11-03T07:08:44;12.70;99.90
21216;DHT22;10765;50.954;5.322;2022-11-03T07:11:16;12.70;99.90
21216;DHT22;10765;50.954;5.322;2022-11-03T07:13:44;12.70;99.90
21216;DHT22;10765;50.954;5.322;2022-11-03T07:16:12;12.60;99.90
21216;DHT22;10765;50.954;5.322;2022-11-03T07:18:42;12.70;99.90
21216;DHT22;10765;50.954;5.322;2022-11-03T07:21:24;12.70;99.90
21216;DHT22;10765;50.954;5.322;2022-11-03T07:23:55;12.80;99.90
21216;DHT22;10765;50.954;5.322;2022-11-03T07:26:22;12.80;91.70
21216;DHT22;10765;50.954;5.322;2022-11-03T07:28:49;12.90;27.40
21216;DHT22;10765;50.954;5.322;2022-11-03T07:31:20;12.90;44.40
21216;DHT22;10765;50.954;5.322;2022-11-03T07:33:47;12.90;55.70
21216;DHT22;10765;50.954;5.322;2022-11-03T07:36:19;12.90;18.10
21216;DHT22;10765;50.954;5.322;2022-11-03T07:38:49;13.00;1.00
21216;DHT22;10765;50.954;5.322;2022-11-03T07:41:18;13.00;22.10
21216;DHT22;10765;50.954;5.322;2022-11-03T07:43:52;13.00;2.50
21216;DHT22;10765;50.954;5.322;2022-11-03T07:46:21;13.00;1.00
21216;DHT22;10765;50.954;5.322;2022-11-03T07:48:49;13.10;1.00
21216;DHT22;10765;50.954;5.322;2022-11-03T07:51:21;13.10;1.00
21216;DHT22;10765;50.954;5.322;2022-11-03T07:53:50;13.20;1.00
21216;DHT22;10765;50.954;5.322;2022-11-03T07:56:19;13.20;1.00
21216;DHT22;10765;50.954;5.322;2022-11-03T07:58:50;13.20;1.00
21216;DHT22;10765;50.954;5.322;2022-11-03T08:01:28;13.20;1.00
21216;DHT22;10765;50.954;5.322;2022-11-03T08:03:59;13.30;1.00
21216;DHT22;10765;50.954;5.322;2022-11-03T08:06:30;13.30;1.00
21216;DHT22;10765;50.954;5.322;2022-11-03T08:08:57;13.20;1.00
21216;DHT22;10765;50.954;5.322;2022-11-03T08:11:24;13.20;1.00
21216;DHT22;10765;50.954;5.322;2022-11-03T08:13:51;13.30;1.00
21216;DHT22;10765;50.954;5.322;2022-11-03T08:16:18;13.40;1.00
21216;DHT22;10765;50.954;5.322;2022-11-03T08:18:46;13.40;1.00
21216;DHT22;10765;50.954;5.322;2022-11-03T08:21:13;13.50;1.00
21216;DHT22;10765;50.954;5.322;2022-11-03T08:23:43;13.50;1.00
21216;DHT22;10765;50.954;5.322;2022-11-03T08:26:10;13.50;1.00
21216;DHT22;10765;50.954;5.322;2022-11-03T08:28:37;13.50;1.00
21216;DHT22;10765;50.954;5.322;2022-11-03T08:31:04;13.50;1.00
21216;DHT22;10765;50.954;5.322;2022-11-03T08:33:31;13.60;1.00
21216;DHT22;10765;50.954;5.322;2022-11-03T08:35:59;13.60;1.00
21216;DHT22;10765;50.954;5.322;2022-11-03T08:38:27;13.60;1.00
21216;DHT22;10765;50.954;5.322;2022-11-03T08:40:56;13.70;1.00
21216;DHT22;10765;50.954;5.322;2022-11-03T08:43:23;13.80;1.00
21216;DHT22;10765;50.954;5.322;2022-11-03T08:45:50;13.70;1.00
21216;DHT22;10765;50.954;5.322;2022-11-03T08:48:18;13.80;1.00
21216;DHT22;10765;50.954;5.322;2022-11-03T08:50:46;13.80;1.00
21216;DHT22;10765;50.954;5.322;2022-11-03T08:53:13;13.80;1.00
21216;DHT22;10765;50.954;5.322;2022-11-03T08:55:40;13.80;1.00
21216;DHT22;10765;50.954;5.322;2022-11-03T08:58:08;13.80;1.00
21216;DHT22;10765;50.954;5.322;2022-11-03T09:00:35;13.90;1.00
21216;DHT22;10765;50.954;5.322;2022-11-03T09:03:02;13.80;1.00
21216;DHT22;10765;50.954;5.322;2022-11-03T09:05:29;13.80;1.00
21216;DHT22;10765;50.954;5.322;2022-11-03T09:07:56;13.90;1.00
21216;DHT22;10765;50.954;5.322;2022-11-03T09:10:24;13.90;1.00
21216;DHT22;10765;50.954;5.322;2022-11-03T09:12:51;13.90;1.00
21216;DHT22;10765;50.954;5.322;2022-11-03T09:15:19;13.90;1.00
21216;DHT22;10765;50.954;5.322;2022-11-03T09:17:46;13.90;1.00
21216;DHT22;10765;50.954;5.322;2022-11-03T09:20:13;13.90;1.00
21216;DHT22;10765;50.954;5.322;2022-11-03T09:22:40;13.90;1.00
21216;DHT22;10765;50.954;5.322;2022-11-03T09:25:08;14.00;1.00
21216;DHT22;10765;50.954;5.322;2022-11-03T09:27:35;14.00;1.00
21216;DHT22;10765;50.954;5.322;2022-11-03T09:30:02;14.00;1.00
21216;DHT22;10765;50.954;5.322;2022-11-03T09:32:31;14.00;1.00
21216;DHT22;10765;50.954;5.322;2022-11-03T09:34:58;14.00;1.00
21216;DHT22;10765;50.954;5.322;2022-11-03T09:37:24;14.00;1.00
21216;DHT22;10765;50.954;5.322;2022-11-03T09:39:52;14.00;1.00
21216;DHT22;10765;50.954;5.322;2022-11-03T09:42:19;14.00;1.00
21216;DHT22;10765;50.954;5.322;2022-11-03T09:44:46;14.00;1.00
21216;DHT22;10765;50.954;5.322;2022-11-03T09:47:22;14.00;1.00
21216;DHT22;10765;50.954;5.322;2022-11-03T09:49:51;14.00;1.00
21216;DHT22;10765;50.954;5.322;2022-11-03T09:52:20;14.00;1.00
21216;DHT22;10765;50.954;5.322;2022-11-03T09:54:48;14.00;1.00
21216;DHT22;10765;50.954;5.322;2022-11-03T09:57:17;14.00;1.00
21216;DHT22;10765;50.954;5.322;2022-11-03T09:59:45;14.00;1.00
21216;DHT22;10765;50.954;5.322;2022-11-03T10:02:19;14.10;1.00
21216;DHT22;10765;50.954;5.322;2022-11-03T10:04:47;14.10;1.00
21216;DHT22;10765;50.954;5.322;2022-11-03T10:07:15;14.10;1.00
21216;DHT22;10765;50.954;5.322;2022-11-03T10:09:44;14.10;1.00
21216;DHT22;10765;50.954;5.322;2022-11-03T10:12:12;14.10;1.00
21216;DHT22;10765;50.954;5.322;2022-11-03T10:14:40;14.20;1.00
21216;DHT22;10765;50.954;5.322;2022-11-03T10:17:09;14.10;1.00
21216;DHT22;10765;50.954;5.322;2022-11-03T10:19:39;14.10;1.00
21216;DHT22;10765;50.954;5.322;2022-11-03T10:22:06;14.10;1.00
21216;DHT22;10765;50.954;5.322;2022-11-03T10:24:34;14.10;1.00
21216;DHT22;10765;50.954;5.322;2022-11-03T10:27:02;14.20;1.00
21216;DHT22;10765;50.954;5.322;2022-11-03T10:29:29;14.20;1.00
21216;DHT22;10765;50.954;5.322;2022-11-03T10:31:58;14.30;1.00
21216;DHT22;10765;50.954;5.322;2022-11-03T10:34:34;14.50;1.00
21216;DHT22;10765;50.954;5.322;2022-11-03T10:37:16;14.60;1.00
21216;DHT22;10765;50.954;5.322;2022-11-03T10:39:47;14.70;1.00
21216;DHT22;10765;50.954;5.322;2022-11-03T10:42:18;15.10;1.00
21216;DHT22;10765;50.954;5.322;2022-11-03T10:44:46;15.40;1.00
21216;DHT22;10765;50.954;5.322;2022-11-03T10:47:25;15.80;1.00
21216;DHT22;10765;50.954;5.322;2022-11-03T10:49:52;16.00;1.00
21216;DHT22;10765;50.954;5.322;2022-11-03T10:52:22;16.00;1.00
21216;DHT22;10765;50.954;5.322;2022-11-03T10:54:53;16.10;1.00
21216;DHT22;10765;50.954;5.322;2022-11-03T10:57:21;15.80;1.00
21216;DHT22;10765;50.954;5.322;2022-11-03T10:59:50;15.80;1.00
21216;DHT22;10765;50.954;5.322;2022-11-03T11:02:20;15.80;1.00
21216;DHT22;10765;50.954;5.322;2022-11-03T11:04:47;15.60;1.00
21216;DHT22;10765;50.954;5.322;2022-11-03T11:07:20;15.70;1.00
21216;DHT22;10765;50.954;5.322;2022-11-03T11:09:53;15.80;1.00
21216;DHT22;10765;50.954;5.322;2022-11-03T11:12:22;15.80;1.00
21216;DHT22;10765;50.954;5.322;2022-11-03T11:14:54;15.80;1.00
21216;DHT22;10765;50.954;5.322;2022-11-03T11:17:44;15.70;1.00
21216;DHT22;10765;50.954;5.322;2022-11-03T11:20:42;15.70;1.00
21216;DHT22;10765;50.954;5.322;2022-11-03T11:26:16;15.50;1.00
21216;DHT22;10765;50.954;5.322;2022-11-03T11:28:44;15.40;1.00
21216;DHT22;10765;50.954;5.322;2022-11-03T11:31:32;15.30;1.00
21216;DHT22;10765;50.954;5.322;2022-11-03T11:37:31;15.50;1.00
21216;DHT22;10765;50.954;5.322;2022-11-03T11:39:58;15.60;1.00
21216;DHT22;10765;50.954;5.322;2022-11-03T11:42:26;15.50;1.00
21216;DHT22;10765;50.954;5.322;2022-11-03T11:45:01;15.60;1.00
21216;DHT22;10765;50.954;5.322;2022-11-03T11:47:49;15.50;1.00
21216;DHT22;10765;50.954;5.322;2022-11-03T11:50:27;15.70;1.00
21216;DHT22;10765;50.954;5.322;2022-11-03T11:53:13;15.60;1.00
21216;DHT22;10765;50.954;5.322;2022-11-03T11:55:50;15.50;1.00
21216;DHT22;10765;50.954;5.322;2022-11-03T11:58:22;15.60;1.00
21216;DHT22;10765;50.954;5.322;2022-11-03T12:00:58;15.50;1.00
21216;DHT22;10765;50.954;5.322;2022-11-03T12:03:31;15.50;1.00
21216;DHT22;10765;50.954;5.322;2022-11-03T12:05:59;15.40;1.00
21216;DHT22;10765;50.954;5.322;2022-11-03T12:08:28;15.50;1.00
21216;DHT22;10765;50.954;5.322;2022-11-03T12:10:57;15.50;1.00
21216;DHT22;10765;50.954;5.322;2022-11-03T12:13:42;15.60;1.00
21216;DHT22;10765;50.954;5.322;2022-11-03T12:16:26;15.70;1.00
21216;DHT22;10765;50.954;5.322;2022-11-03T12:18:53;15.70;1.00
21216;DHT22;10765;50.954;5.322;2022-11-03T12:21:45;15.60;1.00
21216;DHT22;10765;50.954;5.322;2022-11-03T12:24:33;15.60;1.00
21216;DHT22;10765;50.954;5.322;2022-11-03T12:27:02;15.70;1.00
21216;DHT22;10765;50.954;5.322;2022-11-03T12:29:30;15.70;1.00
21216;DHT22;10765;50.954;5.322;2022-11-03T12:31:57;15.80;1.00
21216;DHT22;10765;50.954;5.322;2022-11-03T12:34:24;15.90;1.00
21216;DHT22;10765;50.954;5.322;2022-11-03T12:36:51;16.00;1.00
21216;DHT22;10765;50.954;5.322;2022-11-03T12:39:18;15.90;1.00
21216;DHT22;10765;50.954;5.322;2022-11-03T12:41:45;15.90;1.00
21216;DHT22;10765;50.954;5.322;2022-11-03T12:44:12;15.90;1.00
21216;DHT22;10765;50.954;5.322;2022-11-03T12:46:40;16.00;1.00
21216;DHT22;10765;50.954;5.322;2022-11-03T12:49:07;16.00;1.00
21216;DHT22;10765;50.954;5.322;2022-11-03T12:51:34;16.00;1.00
21216;DHT22;10765;50.954;5.322;2022-11-03T12:54:01;15.90;1.00
21216;DHT22;10765;50.954;5.322;2022-11-03T12:56:28;15.80;1.00
21216;DHT22;10765;50.954;5.322;2022-11-03T12:58:55;15.70;1.00
21216;DHT22;10765;50.954;5.322;2022-11-03T13:01:22;15.70;1.00
21216;DHT22;10765;50.954;5.322;2022-11-03T13:03:50;15.60;1.00
21216;DHT22;10765;50.954;5.322;2022-11-03T13:06:17;15.50;1.00
21216;DHT22;10765;50.954;5.322;2022-11-03T13:08:43;15.40;1.00
21216;DHT22;10765;50.954;5.322;2022-11-03T13:11:10;15.50;1.00
21216;DHT22;10765;50.954;5.322;2022-11-03T13:13:51;15.50;1.00
21216;DHT22;10765;50.954;5.322;2022-11-03T13:16:19;15.40;1.00
21216;DHT22;10765;50.954;5.322;2022-11-03T13:18:45;15.10;1.00
21216;DHT22;10765;50.954;5.322;2022-11-03T13:21:14;14.50;1.00
21216;DHT22;10765;50.954;5.322;2022-11-03T13:23:41;13.90;1.00
21216;DHT22;10765;50.954;5.322;2022-11-03T13:26:07;13.60;42.60
21216;DHT22;10765;50.954;5.322;2022-11-03T13:28:35;13.60;99.90
21216;DHT22;10765;50.954;5.322;2022-11-03T13:31:02;13.50;99.90
21216;DHT22;10765;50.954;5.322;2022-11-03T13:33:29;13.50;99.90
21216;DHT22;10765;50.954;5.322;2022-11-03T13:35:55;13.40;99.90
21216;DHT22;10765;50.954;5.322;2022-11-03T13:38:24;13.40;99.90
21216;DHT22;10765;50.954;5.322;2022-11-03T13:40:51;13.40;99.90
21216;DHT22;10765;50.954;5.322;2022-11-03T13:43:17;13.50;1.00
21216;DHT22;10765;50.954;5.322;2022-11-03T13:45:45;13.50;1.00
21216;DHT22;10765;50.954;5.322;2022-11-03T13:48:12;13.40;99.90
21216;DHT22;10765;50.954;5.322;2022-11-03T13:50:41;13.30;1.00
21216;DHT22;10765;50.954;5.322;2022-11-03T13:53:08;13.30;1.00
21216;DHT22;10765;50.954;5.322;2022-11-03T13:55:36;13.30;1.00
21216;DHT22;10765;50.954;5.322;2022-11-03T13:58:03;13.20;99.90
21216;DHT22;10765;50.954;5.322;2022-11-03T14:00:30;13.10;1.00
21216;DHT22;10765;50.954;5.322;2022-11-03T14:02:57;12.90;1.00
21216;DHT22;10765;50.954;5.322;2022-11-03T14:05:24;12.80;99.90
21216;DHT22;10765;50.954;5.322;2022-11-03T14:07:51;12.80;1.00
21216;DHT22;10765;50.954;5.322;2022-11-03T14:10:17;12.70;1.00
21216;DHT22;10765;50.954;5.322;2022-11-03T14:12:46;12.90;72.60
21216;DHT22;10765;50.954;5.322;2022-11-03T14:15:12;12.80;1.00
21216;DHT22;10765;50.954;5.322;2022-11-03T14:17:39;12.60;99.90
21216;DHT22;10765;50.954;5.322;2022-11-03T14:20:07;12.70;1.00
21216;DHT22;10765;50.954;5.322;2022-11-03T14:22:36;12.90;1.00
21216;DHT22;10765;50.954;5.322;2022-11-03T14:25:04;12.90;1.00
21216;DHT22;10765;50.954;5.322;2022-11-03T14:27:31;12.90;99.90
21216;DHT22;10765;50.954;5.322;2022-11-03T14:29:59;12.90;1.00
21216;DHT22;10765;50.954;5.322;2022-11-03T14:32:26;12.90;1.00
21216;DHT22;10765;50.954;5.322;2022-11-03T14:34:53;12.90;1.00
21216;DHT22;10765;50.954;5.322;2022-11-03T14:37:20;12.70;99.90
21216;DHT22;10765;50.954;5.322;2022-11-03T14:39:49;12.70;1.00
21216;DHT22;10765;50.954;5.322;2022-11-03T14:42:16;12.70;99.90
21216;DHT22;10765;50.954;5.322;2022-11-03T14:44:43;12.70;1.00
21216;DHT22;10765;50.954;5.322;2022-11-03T14:47:13;12.80;1.00
21216;DHT22;10765;50.954;5.322;2022-11-03T14:49:42;12.90;1.00
21216;DHT22;10765;50.954;5.322;2022-11-03T14:52:09;12.80;99.90
21216;DHT22;10765;50.954;5.322;2022-11-03T14:54:36;12.80;99.90
21216;DHT22;10765;50.954;5.322;2022-11-03T14:57:03;12.80;99.90
21216;DHT22;10765;50.954;5.322;2022-11-03T14:59:30;12.80;1.00
21216;DHT22;10765;50.954;5.322;2022-11-03T15:01:58;12.80;1.00
21216;DHT22;10765;50.954;5.322;2022-11-03T15:04:26;12.80;99.90
21216;DHT22;10765;50.954;5.322;2022-11-03T15:06:53;12.80;99.90
21216;DHT22;10765;50.954;5.322;2022-11-03T15:09:20;12.90;1.00
21216;DHT22;10765;50.954;5.322;2022-11-03T15:11:47;12.90;1.00
21216;DHT22;10765;50.954;5.322;2022-11-03T15:14:14;12.80;1.00
21216;DHT22;10765;50.954;5.322;2022-11-03T15:16:41;12.80;1.00
21216;DHT22;10765;50.954;5.322;2022-11-03T15:19:10;12.70;1.00
21216;DHT22;10765;50.954;5.322;2022-11-03T15:21:38;12.70;1.00
21216;DHT22;10765;50.954;5.322;2022-11-03T15:24:06;12.60;1.00
21216;DHT22;10765;50.954;5.322;2022-11-03T15:26:33;12.70;78.00
21216;DHT22;10765;50.954;5.322;2022-11-03T15:28:59;12.70;1.00
21216;DHT22;10765;50.954;5.322;2022-11-03T15:31:26;12.60;99.90
21216;DHT22;10765;50.954;5.322;2022-11-03T15:33:53;12.60;99.90
21216;DHT22;10765;50.954;5.322;2022-11-03T15:36:20;12.60;1.00
21216;DHT22;10765;50.954;5.322;2022-11-03T15:38:49;12.50;1.00
21216;DHT22;10765;50.954;5.322;2022-11-03T15:41:16;12.30;1.00
21216;DHT22;10765;50.954;5.322;2022-11-03T15:43:45;12.40;1.00
21216;DHT22;10765;50.954;5.322;2022-11-03T15:46:12;12.30;1.00
21216;DHT22;10765;50.954;5.322;2022-11-03T15:48:40;12.40;99.90
21216;DHT22;10765;50.954;5.322;2022-11-03T15:51:07;12.30;89.70
21216;DHT22;10765;50.954;5.322;2022-11-03T15:53:34;12.10;7.30
21216;DHT22;10765;50.954;5.322;2022-11-03T15:56:03;12.10;1.00
21216;DHT22;10765;50.954;5.322;2022-11-03T15:58:30;12.10;99.90
21216;DHT22;10765;50.954;5.322;2022-11-03T16:00:59;12.10;99.90
21216;DHT22;10765;50.954;5.322;2022-11-03T16:03:26;12.10;1.00